Etusivu
METAR-TAF:

METAR-TAF

Lentoasemat :

Ronnebyn lentoasema

Ronneby, Ruotsi

Leveyspiiri: 56-16N, Pituuspiiri: 015-17E, korkeus merenpinnasta: 58 m

Tämänhetkinen sää

Tämä raportti tehtiin 24 minuuttia sitten, kello 12.50 UTC
Tuuli 14 kn idästä/kaakosta
Lämpötila 16°C
Kosteus 72%
Ilmanpaine 1006 hPa
Näkyvyys 10 km tai enemmän
heikkoja vesikuuroja,

METAR: ESDF 151250Z AUTO 12014KT 9999 -SHRA BKN047/// OVC060/// 16/11 Q1006

Aika: 15:14 (13:14 UTC)

Sääennuste

Tämä raportti tehtiin 1 tunti ja 44 minuuttia sitten, kello 11.30 UTC
Ennuste voimassa 15. päivästä klo 12 UTC - 15. päivään klo 14 UTC
Tuuli 15 kn kaakosta puuskistuen 25 kn:hen
Näkyvyys 10 km tai enemmän
ei pilviä alle 1500 m:ssä eikä cumulonimbus-pilviä
Ajoittain
15. päivästä klo 13 UTC - 15. päivään klo 14 UTC
Näkyvyys: 4000 m
sadetta,

TAF: ESDF 151130Z 1512/1514 13015G25KT CAVOK TEMPO 1513/1514 4000 RA

Säähavainnot ja -ennusteet yli 4000 lentoasemalta (METAR- ja TAF-raportit).

Käytössä olevat sääasemat on merkitty karttaan keltaisilla ja punaisilla pisteillä.

Aseta hiiri pisteen päälle nähdäksesi sääaseman nimen.

Klikkaa sitten nähdäksesi säähavainnot ja -ennusteet.

Kartan vaihtaminen: klikkaa mustalla rastilla varustettuja vihreitä pisteitä, niin voit zoomata sisään; viivalla varustettua vihreää pistettä, niin voit zoomata ulos tai vihreitä nuolia, niin pääset viereisille kartoille.


METAR-TAF: